createdAt,value
2023-05-24T00:00:28.957Z,5.80
2023-05-24T00:05:52.574Z,5.70
2023-05-24T00:10:55.514Z,6.40
2023-05-24T00:15:58.414Z,5.80
2023-05-24T00:21:01.358Z,6.10
2023-05-24T00:26:05.696Z,6.90
2023-05-24T00:31:08.690Z,6.20
2023-05-24T00:36:11.572Z,6.90
2023-05-24T00:41:14.593Z,7.50
2023-05-24T00:46:44.165Z,6.90
2023-05-24T00:51:48.266Z,6.30
2023-05-24T00:56:51.580Z,7.20
2023-05-24T01:01:55.604Z,6.70
2023-05-24T01:07:48.657Z,6.10
2023-05-24T01:13:04.609Z,6.90
2023-05-24T01:18:26.171Z,6.00
2023-05-24T01:24:18.605Z,6.10
2023-05-24T01:29:23.879Z,6.00
2023-05-24T01:34:26.870Z,6.10
2023-05-24T01:39:31.104Z,5.70
2023-05-24T01:45:08.869Z,6.50
2023-05-24T01:50:27.014Z,7.20
2023-05-24T01:55:33.246Z,6.50
2023-05-24T02:00:37.633Z,6.40
2023-05-24T02:05:40.607Z,6.90
2023-05-24T02:10:43.803Z,6.50
2023-05-24T02:15:48.102Z,6.60
2023-05-24T02:20:51.509Z,6.80
2023-05-24T02:25:55.663Z,7.30
2023-05-24T02:30:58.927Z,6.70
2023-05-24T02:36:01.856Z,6.80
2023-05-24T02:41:04.830Z,6.90
2023-05-24T02:46:07.767Z,6.70
2023-05-24T02:51:10.652Z,6.90
2023-05-24T02:56:14.139Z,7.30
2023-05-24T03:01:17.063Z,7.00
2023-05-24T03:06:19.984Z,6.60
2023-05-24T03:11:24.107Z,7.00
2023-05-24T03:16:27.073Z,6.20
2023-05-24T03:21:30.078Z,6.00
2023-05-24T03:26:33.084Z,6.80
2023-05-24T03:31:36.181Z,6.70
2023-05-24T03:36:39.085Z,6.90
2023-05-24T03:41:41.947Z,5.90
2023-05-24T03:46:44.839Z,6.40
2023-05-24T03:51:47.729Z,6.00
2023-05-24T03:56:50.575Z,6.50
2023-05-24T04:01:53.496Z,6.50
2023-05-24T04:06:56.431Z,6.30
2023-05-24T04:11:59.296Z,5.90
2023-05-24T04:17:04.685Z,5.90
2023-05-24T04:22:07.748Z,5.60
2023-05-24T04:27:10.715Z,5.30
2023-05-24T04:32:14.891Z,5.20
2023-05-24T04:37:17.830Z,5.90
2023-05-24T04:42:20.744Z,6.10
2023-05-24T04:47:24.289Z,6.00
2023-05-24T04:52:27.938Z,5.60
2023-05-24T04:57:31.104Z,6.10
2023-05-24T05:02:35.142Z,5.90
2023-05-24T05:07:38.611Z,6.10
2023-05-24T05:12:41.484Z,6.60
2023-05-24T05:17:44.555Z,6.70
2023-05-24T05:22:48.929Z,5.80
2023-05-24T05:27:51.915Z,6.00
2023-05-24T05:32:54.918Z,5.90
2023-05-24T05:37:57.990Z,6.30
2023-05-24T05:43:01.020Z,6.20
2023-05-24T05:48:04.151Z,6.30
2023-05-24T05:53:07.024Z,6.70
2023-05-24T05:58:10.062Z,6.00
2023-05-24T06:03:13.503Z,6.10
2023-05-24T06:08:16.593Z,5.80
2023-05-24T06:13:19.500Z,5.80
2023-05-24T06:18:22.509Z,6.40
2023-05-24T06:23:25.482Z,6.00
2023-05-24T06:28:28.498Z,6.30
2023-05-24T06:33:32.673Z,6.30
2023-05-24T06:38:36.502Z,6.50
2023-05-24T06:43:40.641Z,5.80
2023-05-24T06:48:43.599Z,5.80
2023-05-24T06:53:46.785Z,6.10
2023-05-24T06:58:49.770Z,5.70
2023-05-24T07:03:52.883Z,5.30
2023-05-24T07:08:56.158Z,5.20
2023-05-24T07:13:59.050Z,5.20
2023-05-24T07:19:04.721Z,6.10
2023-05-24T07:24:08.673Z,4.90
2023-05-24T07:29:12.075Z,5.40
2023-05-24T07:34:15.891Z,4.50
2023-05-24T07:39:19.215Z,4.60
2023-05-24T07:44:22.554Z,5.00
2023-05-24T07:49:25.565Z,4.60
2023-05-24T07:54:28.460Z,4.10
2023-05-24T07:59:31.478Z,4.10
2023-05-24T08:04:35.050Z,3.90
2023-05-24T08:09:38.588Z,3.80
2023-05-24T08:14:41.715Z,4.40
2023-05-24T08:19:44.692Z,4.30
2023-05-24T08:24:47.579Z,3.80
2023-05-24T08:29:50.772Z,4.20
2023-05-24T08:35:00.390Z,4.40
2023-05-24T08:40:10.131Z,4.10
2023-05-24T08:45:15.937Z,4.50
2023-05-24T08:50:20.383Z,4.60
2023-05-24T08:55:24.751Z,3.60
2023-05-24T09:00:28.149Z,4.20
2023-05-24T09:05:32.806Z,4.30
2023-05-24T09:10:45.563Z,3.80
2023-05-24T09:16:00.300Z,3.40
2023-05-24T09:21:03.365Z,3.80
2023-05-24T09:26:11.536Z,4.00
2023-05-24T09:31:14.491Z,3.60
2023-05-24T09:36:17.560Z,3.90
2023-05-24T09:41:20.671Z,3.60
2023-05-24T09:46:23.738Z,3.20
2023-05-24T09:51:27.174Z,3.60
2023-05-24T09:56:33.076Z,3.20
2023-05-24T10:01:36.510Z,3.40
2023-05-24T10:06:43.150Z,3.40
2023-05-24T10:11:46.280Z,2.90
2023-05-24T10:16:49.278Z,3.70
2023-05-24T10:21:55.887Z,3.30
2023-05-24T10:27:02.480Z,2.90
2023-05-24T10:32:06.400Z,3.20
2023-05-24T10:37:09.731Z,3.30
2023-05-24T10:42:13.931Z,3.50
2023-05-24T10:47:20.832Z,3.60
2023-05-24T10:52:37.504Z,3.10
2023-05-24T10:57:41.399Z,3.10
2023-05-24T11:02:44.720Z,3.60
2023-05-24T11:07:48.484Z,3.60
2023-05-24T11:13:01.616Z,3.30
2023-05-24T11:18:12.931Z,2.90
2023-05-24T11:23:17.056Z,3.60
2023-05-24T11:28:22.168Z,3.00
2023-05-24T11:33:25.165Z,3.00
2023-05-24T11:38:28.141Z,4.00
2023-05-24T11:43:31.699Z,3.60
2023-05-24T11:48:35.131Z,3.10
2023-05-24T11:53:38.746Z,3.60
2023-05-24T11:58:56.366Z,3.60
2023-05-24T12:03:59.426Z,3.40
2023-05-24T12:09:05.655Z,2.80
2023-05-24T12:14:13.837Z,3.10
2023-05-24T12:19:32.340Z,3.00
2023-05-24T12:24:38.002Z,3.50
2023-05-24T12:29:42.619Z,3.80
2023-05-24T12:34:45.987Z,3.80
2023-05-24T12:39:48.915Z,3.30
2023-05-24T12:44:54.390Z,3.30
2023-05-24T12:49:57.381Z,3.60
2023-05-24T12:55:00.381Z,3.60
2023-05-24T13:00:05.772Z,3.40
2023-05-24T13:05:09.111Z,3.40
2023-05-24T13:10:13.963Z,3.90
2023-05-24T13:15:16.852Z,5.50
2023-05-24T13:20:22.471Z,4.30
2023-05-24T13:25:26.773Z,3.20
2023-05-24T13:30:30.230Z,3.90
2023-05-24T13:35:33.201Z,4.50
2023-05-24T13:40:37.856Z,3.90
2023-05-24T13:45:42.464Z,3.60
2023-05-24T13:50:45.625Z,3.70
2023-05-24T13:55:49.298Z,3.80
2023-05-24T14:00:52.321Z,3.30
2023-05-24T14:05:55.283Z,3.70
2023-05-24T14:10:58.226Z,3.70
2023-05-24T14:16:01.355Z,3.50
2023-05-24T14:21:04.374Z,3.20
2023-05-24T14:26:07.271Z,4.00
2023-05-24T14:31:10.297Z,3.40
2023-05-24T14:36:13.235Z,4.00
2023-05-24T14:41:16.372Z,3.50
2023-05-24T14:46:19.454Z,3.60
2023-05-24T14:51:22.627Z,3.50
2023-05-24T14:56:25.540Z,3.70
2023-05-24T15:01:28.618Z,3.60
2023-05-24T15:06:34.995Z,3.90
2023-05-24T15:11:38.148Z,2.90
2023-05-24T15:16:41.365Z,3.10
2023-05-24T15:21:44.366Z,3.60
2023-05-24T15:26:47.479Z,3.30
2023-05-24T15:31:50.491Z,3.00
2023-05-24T15:36:53.623Z,3.30
2023-05-24T15:41:57.151Z,3.30
2023-05-24T15:47:00.245Z,3.70
2023-05-24T15:52:05.150Z,3.70
2023-05-24T15:57:08.526Z,6.20
2023-05-24T16:02:11.589Z,4.30
2023-05-24T16:07:14.554Z,3.70
2023-05-24T16:12:18.901Z,3.20
2023-05-24T16:17:21.976Z,3.60
2023-05-24T16:22:25.211Z,3.00
2023-05-24T16:27:28.319Z,3.50
2023-05-24T16:32:31.700Z,3.10
2023-05-24T16:37:35.029Z,3.60
2023-05-24T16:42:38.032Z,3.20
2023-05-24T16:47:41.138Z,3.50
2023-05-24T16:52:45.387Z,3.60
2023-05-24T16:57:48.342Z,3.40
2023-05-24T17:02:51.288Z,3.40
2023-05-24T17:07:55.635Z,3.40
2023-05-24T17:12:58.985Z,3.50
2023-05-24T17:18:01.984Z,3.30
2023-05-24T17:23:04.897Z,3.90
2023-05-24T17:28:07.834Z,3.20
2023-05-24T17:33:10.744Z,3.70
2023-05-24T17:38:13.650Z,4.00
2023-05-24T17:43:16.484Z,3.30
2023-05-24T17:48:19.435Z,3.60
2023-05-24T17:53:31.332Z,4.00
2023-05-24T17:58:38.057Z,3.70
2023-05-24T18:03:42.777Z,4.10
2023-05-24T18:08:45.818Z,4.40
2023-05-24T18:13:48.811Z,3.80
2023-05-24T18:18:51.664Z,5.50
2023-05-24T18:23:54.677Z,6.40
2023-05-24T18:28:57.610Z,4.80
2023-05-24T18:34:01.906Z,4.10
2023-05-24T18:39:05.030Z,4.10
2023-05-24T18:44:07.924Z,4.30
2023-05-24T18:49:12.106Z,5.30
2023-05-24T18:54:15.049Z,5.30
2023-05-24T18:59:18.180Z,5.20
2023-05-24T19:04:21.764Z,5.10
2023-05-24T19:09:24.963Z,6.60
2023-05-24T19:14:27.906Z,6.00
2023-05-24T19:19:32.054Z,5.40
2023-05-24T19:24:35.300Z,5.30
2023-05-24T19:29:40.084Z,6.30
2023-05-24T19:34:44.124Z,6.60
2023-05-24T19:39:47.987Z,6.80
2023-05-24T19:44:54.980Z,7.10
2023-05-24T19:49:58.436Z,6.50
2023-05-24T19:55:01.423Z,8.00
2023-05-24T20:00:06.532Z,6.90
2023-05-24T20:05:10.217Z,7.80
2023-05-24T20:10:13.507Z,6.80
2023-05-24T20:15:21.607Z,6.80
2023-05-24T20:20:26.236Z,6.40
2023-05-24T20:25:31.174Z,7.40
2023-05-24T20:30:35.292Z,7.30
2023-05-24T20:35:38.874Z,7.10
2023-05-24T20:40:42.549Z,8.50
2023-05-24T20:45:46.090Z,7.20
2023-05-24T20:50:49.308Z,7.80
2023-05-24T20:55:52.469Z,8.30
2023-05-24T21:00:56.173Z,7.60
2023-05-24T21:06:00.198Z,7.00
2023-05-24T21:11:03.296Z,7.90
2023-05-24T21:16:06.336Z,10.10
2023-05-24T21:21:09.576Z,8.80
2023-05-24T21:26:12.520Z,7.30
2023-05-24T21:31:15.580Z,7.10
2023-05-24T21:36:18.611Z,5.90
2023-05-24T21:41:22.436Z,6.40
2023-05-24T21:46:28.024Z,7.00
2023-05-24T21:51:31.076Z,10.60
2023-05-24T21:56:34.463Z,9.20
2023-05-24T22:01:39.258Z,8.60
2023-05-24T22:06:42.885Z,7.30
2023-05-24T22:11:45.826Z,8.10
2023-05-24T22:16:49.480Z,7.00
2023-05-24T22:21:52.551Z,7.60
2023-05-24T22:26:56.006Z,7.10
2023-05-24T22:31:58.894Z,6.90
2023-05-24T22:37:01.850Z,10.70
2023-05-24T22:42:05.078Z,10.40
2023-05-24T22:47:12.087Z,8.30
2023-05-24T22:52:15.073Z,7.20
2023-05-24T22:57:21.870Z,7.90
2023-05-24T23:02:24.844Z,10.40
2023-05-24T23:07:27.810Z,6.90
2023-05-24T23:12:30.689Z,7.70
2023-05-24T23:17:33.581Z,7.70
2023-05-24T23:22:37.769Z,7.50
2023-05-24T23:27:41.233Z,7.70
2023-05-24T23:32:44.225Z,7.40
2023-05-24T23:37:47.124Z,8.50
2023-05-24T23:42:50.013Z,7.70
2023-05-24T23:47:52.873Z,7.90
2023-05-24T23:52:56.428Z,7.70
2023-05-24T23:58:00.462Z,7.00
